Flight Track Log - Related Links

Times and Time Zones

All times are in EDT time to prevent confusion due to time zone crossing. See the N717AN flight status page for this flight to view local times or setup timezone preferences in your user account.

Time Position Orientation Groundspeed Altitude Reporting Facility
EDT Latitude Longitude Course Direction KTS MPH feet Rate Location/Type
Sun 07:38:15 PM 40.6500 -73.7900 163° South 9 10  Level FlightAware ADS-B
Sun 07:49:03 PM 40.6520 -73.7890 360° North 18 21 24 Level FlightAware ADS-B
Sun 07:49:15 PM 40.6520 -73.7900 270° West 18 21 33 Level FlightAware ADS-B
Sun 07:49:42 PM 40.6530 -73.7910 323° Northwest 28 32 34 Level FlightAware ADS-B
Sun 07:50:16 PM 40.6530 -73.7940 270° West 15 17 34 Level FlightAware ADS-B
Sun 07:50:39 PM 40.6520 -73.7960 237° Southwest 17 20 35 Level FlightAware ADS-B
Sun 07:51:20 PM 40.6500 -73.7980 217° Southwest 17 20 36 Level FlightAware ADS-B
Sun 07:52:46 PM 40.6440 -73.7960 166° South 24 28 37 Level FlightAware ADS-B
Sun 07:54:50 PM 40.6420 -73.7960 123° Southeast 17 20 39 Level FlightAware ADS-B
Sun 07:55:00 PM 40.8198 -73.5051 123° Southeast  Level Estimated
Sun 07:55:49 PM 40.6420 -73.7970 270° West 12 14  Level FlightAware ADS-B
Sun 07:58:00 PM 40.8138 -73.5126 90° East  Level Estimated
Sun 07:59:00 PM 40.8923 -73.3819 111° Southeast  Level Estimated
Sun 07:59:49 PM 40.6420 -73.7980 111° Southeast 24 28  Level FlightAware ADS-B
Sun 08:00:01 PM 40.6420 -73.7990 270° West 24 28 56 Level FlightAware ADS-B
Sun 08:00:23 PM 40.6420 -73.8000 270° West 26 30 57 Level FlightAware ADS-B
Sun 08:00:58 PM 40.6430 -73.8010 323° Northwest 24 28 58 Level FlightAware ADS-B
Sun 08:01:18 PM 40.6430 -73.8020 270° West 20 23 60 Level FlightAware ADS-B
Sun 08:02:08 PM 40.6440 -73.8040 303° West 21 24 62 Level FlightAware ADS-B
Sun 08:04:00 PM 40.7910 -73.5610 114° Southeast  Level Estimated
Sun 08:04:14 PM 40.6450 -73.8060 114° Southeast 11 13  Level FlightAware ADS-B
Sun 08:04:55 PM 40.6460 -73.8070 323° Northwest 23 26 77 Level FlightAware ADS-B
Sun 08:06:18 PM 40.6470 -73.8100 294° West 21 24 82 Level FlightAware ADS-B
Sun 08:08:00 PM 40.7808 -73.5887 114° Southeast  Level Estimated
Sun 08:09:00 PM 40.8594 -73.4581 111° Southeast  Level Estimated
Sun 08:09:32 PM 40.6480 -73.8130 111° Southeast  Level FlightAware ADS-B
Sun 08:10:31 PM 40.6490 -73.8130 360° North 10 12 141 Level FlightAware ADS-B
Sun 08:12:24 PM 40.6490 -73.8140 270° West 10 12 166 Level FlightAware ADS-B
Sun 08:12:55 PM 40.6490 -73.8150 270° West 16 18 255 Level FlightAware ADS-B
Sun 08:13:16 PM 40.6500 -73.8160 323° Northwest 14 16 298 Level FlightAware ADS-B
Sun 08:14:16 PM 40.6490 -73.8160 180° South 22 25 338 Level FlightAware ADS-B
Sun 08:14:54 PM 40.6470 -73.8140 143° Southeast 46 53 540 Level FlightAware ADS-B
Sun 08:15:28 PM 40.6370 -73.7920 121° Southeast 175 201 871 Level FlightAware ADS-B
Sun 08:15:56 PM 40.6240 -73.7660 123° Southeast 185 213 900 1,714 Climbing FlightAware ADS-B
Sun 08:16:24 PM 40.6050 -73.7460 141° Southeast 200 230 1,600 1,350 Climbing FlightAware ADS-B
Sun 08:16:36 PM 40.5970 -73.7360 136° Southeast 210 242 1,800 1,071 Climbing FlightAware ADS-B
Sun 08:16:52 PM 40.5890 -73.7170 119° Southeast 228 262 2,100 1,105 Climbing FlightAware ADS-B
Sun 08:17:14 PM 40.5860 -73.6840 97° East 254 292 2,500 1,472 Climbing FlightAware ADS-B
Sun 08:17:45 PM 40.5820 -73.6330 96° East 275 316 3,400 2,143 Climbing FlightAware ADS-B
Sun 08:18:10 PM 40.5770 -73.5920 99° East 276 318 4,500 2,316 Climbing FlightAware ADS-B
Sun 08:18:42 PM 40.5610 -73.5410 112° Southeast 287 330 5,600 2,250 Climbing FlightAware ADS-B
Sun 08:18:58 PM 40.5520 -73.5140 114° Southeast 289 333 6,300 1,909 Climbing FlightAware ADS-B
Sun 08:19:26 PM 40.5380 -73.4680 112° Southeast 303 349 7,000 1,929 Climbing FlightAware ADS-B
Sun 08:19:54 PM 40.5240 -73.4200 111° Southeast 304 350 8,100 2,143 Climbing FlightAware ADS-B
Sun 08:20:22 PM 40.5090 -73.3740 113° Southeast 313 360 9,000 1,941 Climbing FlightAware ADS-B
Sun 08:21:02 PM 40.4870 -73.3000 111° Southeast 327 376 10,300 1,714 Climbing FlightAware ADS-B
Sun 08:21:46 PM 40.4620 -73.2120 110° East 360 414 11,400 1,500 Climbing FlightAware ADS-B
Sun 08:22:22 PM 40.4670 -73.1360 85° East 387 445 12,300 1,929 Climbing FlightAware ADS-B
Sun 08:23:10 PM 40.4900 -73.0150 76° East 415 478 14,100 2,182 Climbing FlightAware ADS-B
Sun 08:23:50 PM 40.5080 -72.9150 77° East 433 498 15,500 2,122 Climbing FlightAware ADS-B
Sun 08:24:32 PM 40.5280 -72.8110 76° East 447 514 17,000 2,154 Climbing FlightAware ADS-B
Sun 08:25:08 PM 40.5470 -72.7140 76° East 459 528 18,300 2,096 Climbing FlightAware ADS-B
Sun 08:25:55 PM 40.5710 -72.5850 76° East 470 541 19,900 2,133 Climbing FlightAware ADS-B
Sun 08:26:38 PM 40.5950 -72.4590 76° East 482 555 21,500 2,000 Climbing FlightAware ADS-B
Sun 08:27:22 PM 40.6180 -72.3390 76° East 490 564 22,800 1,895 Climbing FlightAware ADS-B
Sun 08:28:13 PM 40.6460 -72.1830 77° East 503 579 24,500 1,895 Climbing FlightAware ADS-B
Sun 08:28:57 PM 40.6710 -72.0510 76° East 511 588 25,800 1,537 Climbing FlightAware ADS-B
Sun 08:29:35 PM 40.6920 -71.9380 76° East 524 603 26,600 1,364 Climbing FlightAware ADS-B
Sun 08:30:25 PM 40.7210 -71.7780 77° East 538 619 27,800 1,500 Climbing FlightAware ADS-B
Sun 08:31:03 PM 40.7430 -71.6550 77° East 547 629 28,800 1,032 Climbing FlightAware ADS-B
Sun 08:31:58 PM 40.7730 -71.4900 76° East 553 636 29,400 1,647 Climbing FlightAware ADS-B
Sun 08:32:45 PM 40.8020 -71.3240 77° East 551 634 31,600 1,835 Climbing FlightAware ADS-B
Sun 08:33:23 PM 40.8230 -71.2060 77° East 553 636 32,000 308 Climbing FlightAware ADS-B
Sun 08:34:03 PM 40.8420 -71.0940 77° East 553 636 32,000 408 Level FlightAware ADS-B
Sun 08:35:06 PM 40.8810 -70.8730 77° East 555 639 32,700 541 Climbing FlightAware ADS-B
Sun 08:35:54 PM 40.9050 -70.7260 78° East 549 632 33,000 186 Climbing FlightAware ADS-B
Sun 08:36:43 PM 40.9310 -70.5730 77° East 549 632 33,000  Level FlightAware ADS-B
Sun 08:37:23 PM 40.9560 -70.4280 77° East 549 632 33,000  Level FlightAware ADS-B
Sun 08:37:59 PM 40.9720 -70.3280 78° East 549 632 33,000  Level FlightAware ADS-B
Sun 08:38:43 PM 41.0770 -70.1910 45° Northeast 33,000  Level FlightAware ADS-B
Sun 08:39:58 PM 41.1840 -69.9960 54° Northeast 33,000  Level FlightAware ADS-B
Sun 08:40:47 PM 41.2419 -69.8919 54° Northeast 528 608 33,000  Level Boston Center
Sun 08:46:29 PM 41.7250 -68.9170 54° Northeast 541 623 33,000  Level FlightAware ADS-B
Sun 08:47:06 PM 41.7680 -68.8280 57° Northeast 541 623 33,000  Level FlightAware ADS-B
Sun 08:47:53 PM 41.8220 -68.7160 57° Northeast 541 623 33,000  Level FlightAware ADS-B
Sun 08:48:29 PM 41.8940 -68.5710 56° Northeast 543 625 33,000  Level FlightAware ADS-B
Sun 08:49:14 PM 41.9540 -68.4460 57° Northeast 545 627 33,000  Level FlightAware ADS-B
Sun 08:50:14 PM 42.0400 -68.2670 57° Northeast 546 628 33,000  Level FlightAware ADS-B
Sun 08:50:54 PM 42.0960 -68.1490 57° Northeast 548 631 33,000  Level FlightAware ADS-B
Sun 08:51:34 PM 42.1510 -68.0340 57° Northeast 547 629 33,000  Level FlightAware ADS-B
Sun 08:52:21 PM 42.2120 -67.9060 57° Northeast 545 627 33,000  Level FlightAware ADS-B
Sun 08:52:54 PM 42.2540 -67.8150 58° Northeast 545 627 33,000  Level FlightAware ADS-B
Sun 08:53:45 PM 42.3120 -67.6900 58° Northeast 545 627 33,000  Level FlightAware ADS-B
Sun 08:54:22 PM 42.3540 -67.5990 58° Northeast 545 627 33,000  Level FlightAware ADS-B
Sun 08:55:23 PM 42.4230 -67.4490 58° Northeast 545 627 33,000  Level FlightAware ADS-B
Sun 08:55:59 PM 42.4640 -67.3600 58° Northeast 545 627 33,000  Level FlightAware ADS-B
Sun 08:56:46 PM 42.5170 -67.2440 58° Northeast 545 627 33,000  Level FlightAware ADS-B
Sun 08:57:25 PM 42.5620 -67.1480 58° Northeast 545 627 33,000  Level FlightAware ADS-B
Sun 08:58:02 PM 42.6040 -67.0570 58° Northeast 545 627 33,000  Level FlightAware ADS-B
Sun 08:58:50 PM 42.6580 -66.9380 58° Northeast 545 627 33,000  Level FlightAware ADS-B
Sun 08:59:26 PM 42.6990 -66.8490 58° Northeast 545 627 33,000  Level FlightAware ADS-B
Sun 09:00:12 PM 42.8220 -66.4790 66° East 560 644 33,000  Level FlightAware ADS-B
Sun 09:00:58 PM 42.8730 -66.3350 64° Northeast 561 646 33,000  Level FlightAware ADS-B
Sun 09:01:37 PM 42.9180 -66.2090 64° Northeast 564 649 33,000  Level FlightAware ADS-B
Sun 09:02:18 PM 42.9640 -66.0790 64° Northeast 565 650 33,000  Level FlightAware ADS-B
Sun 09:02:58 PM 43.0110 -65.9470 64° Northeast 565 650 33,000  Level FlightAware ADS-B
Sun 09:03:43 PM 43.0610 -65.8050 64° Northeast 565 650 33,000  Level FlightAware ADS-B
Sun 09:04:23 PM 43.1070 -65.6740 64° Northeast 564 649 33,000  Level FlightAware ADS-B
Sun 09:05:08 PM 43.1560 -65.5310 65° Northeast 565 650 33,000  Level FlightAware ADS-B
Sun 09:05:49 PM 43.2020 -65.3990 64° Northeast 565 650 33,000  Level FlightAware ADS-B
Sun 09:06:33 PM 43.2510 -65.2570 65° Northeast 565 650 33,000  Level FlightAware ADS-B
Sun 09:07:14 PM 43.2970 -65.1230 65° Northeast 565 650 33,000  Level FlightAware ADS-B
Sun 09:07:58 PM 43.3460 -64.9790 65° Northeast 566 651 33,000  Level FlightAware ADS-B
Sun 09:08:38 PM 43.3890 -64.8510 65° Northeast 563 648 33,000  Level FlightAware ADS-B
Sun 09:09:18 PM 43.4340 -64.7180 65° Northeast 564 649 33,000  Level FlightAware ADS-B
Sun 09:09:58 PM 43.4780 -64.5880 65° Northeast 563 648 33,000  Level FlightAware ADS-B
Sun 09:10:40 PM 43.5150 -64.4730 66° East 563 648 33,000  Level FlightAware ADS-B
Sun 09:11:31 PM 43.5610 -64.3310 66° East 563 648 33,000  Level FlightAware ADS-B
Sun 09:12:19 PM 43.6040 -64.1970 66° East 563 648 33,000  Level FlightAware ADS-B
Sun 09:12:56 PM 43.6380 -64.0940 65° Northeast 563 648 33,000  Level FlightAware ADS-B
Sun 09:13:57 PM 43.6920 -63.9230 66° East 563 648 33,000  Level FlightAware ADS-B
Sun 09:14:33 PM 43.7250 -63.8220 66° East 563 648 33,000  Level FlightAware ADS-B
Sun 09:15:12 PM 43.8140 -63.5650 64° Northeast 575 662 33,000  Level FlightAware ADS-B
Sun 09:15:58 PM 43.8640 -63.4100 66° East 575 662 33,000  Level FlightAware ADS-B
Sun 09:16:52 PM 43.9270 -63.2120 66° East 578 665 33,000  Level FlightAware ADS-B
Sun 09:18:05 PM 44.0040 -62.9680 66° East 579 666 33,000  Level FlightAware ADS-B
Sun 09:18:46 PM 44.0450 -62.8360 67° East 579 666 33,000  Level FlightAware ADS-B
Sun 09:19:31 PM 44.0960 -62.6750 66° East 579 666 33,000  Level FlightAware ADS-B
Sun 09:20:12 PM 44.1350 -62.5500 66° East 579 666 33,000  Level FlightAware ADS-B
Sun 09:20:51 PM 44.1690 -62.4360 67° East 579 666 33,000  Level FlightAware ADS-B
Sun 09:21:36 PM 44.2300 -62.2390 67° East 580 667 33,000  Level FlightAware ADS-B
Sun 09:22:18 PM 44.2700 -62.1090 67° East 581 669 33,000  Level FlightAware ADS-B
Sun 09:22:55 PM 44.3030 -62.0000 67° East 581 669 33,000  Level FlightAware ADS-B
Sun 09:23:41 PM 44.3440 -61.8650 67° East 581 669 33,000  Level FlightAware ADS-B
Sun 09:24:27 PM 44.3850 -61.7290 67° East 581 669 33,000  Level FlightAware ADS-B
Sun 09:25:01 PM 44.4160 -61.6290 67° East 581 669 33,000  Level FlightAware ADS-B
Sun 09:25:49 PM 44.4580 -61.4880 67° East 581 669 33,000  Level FlightAware ADS-B
Sun 09:26:26 PM 44.4910 -61.3790 67° East 581 669 33,000  Level FlightAware ADS-B
Sun 09:27:40 PM 44.5570 -61.1610 67° East 581 669 33,000  Level FlightAware ADS-B
Sun 09:28:17 PM 44.5900 -61.0510 67° East 581 669 33,000  Level FlightAware ADS-B
Sun 09:29:03 PM 44.6910 -60.6870 69° East 583 671 33,000  Level FlightAware ADS-B
Sun 09:29:59 PM 44.7480 -60.4900 68° East 582 670 33,000  Level FlightAware ADS-B
Sun 09:30:43 PM 44.7920 -60.3350 68° East 583 671 33,000  Level FlightAware ADS-B
Sun 09:31:26 PM 44.8340 -60.1850 68° East 584 672 33,000  Level FlightAware ADS-B
Sun 09:32:07 PM 44.8750 -60.0420 68° East 585 673 33,000  Level FlightAware ADS-B
Sun 09:32:46 PM 44.9110 -59.9110 69° East 586 674 33,000  Level FlightAware ADS-B
Sun 09:33:27 PM 44.9550 -59.7530 68° East 587 676 33,000  Level FlightAware ADS-B
Sun 09:34:13 PM 45.0000 -59.5900 69° East 589 678 33,000  Level FlightAware ADS-B
Sun 09:34:57 PM 45.0430 -59.4330 69° East 588 677 33,000  Level FlightAware ADS-B
Sun 09:35:37 PM 45.0820 -59.2900 69° East 588 677 33,000  Level FlightAware ADS-B
Sun 09:36:21 PM 45.1250 -59.1320 69° East 586 674 33,000  Level FlightAware ADS-B
Sun 09:37:01 PM 45.1640 -58.9890 69° East 587 676 33,000  Level FlightAware ADS-B
Sun 09:37:39 PM 45.2010 -58.8500 69° East 586 674 33,000  Level FlightAware ADS-B
Sun 09:38:23 PM 45.2420 -58.6930 70° East 586 674 33,000  Level FlightAware ADS-B
Sun 09:39:07 PM 45.2840 -58.5370 69° East 585 673 33,000  Level FlightAware ADS-B
Sun 09:39:49 PM 45.3240 -58.3850 69° East 584 672 33,000  Level FlightAware ADS-B
Sun 09:40:29 PM 45.3610 -58.2410 70° East 584 672 33,000  Level FlightAware ADS-B
Sun 09:41:13 PM 45.4020 -58.0840 70° East 584 672 33,000  Level FlightAware ADS-B
Sun 09:41:53 PM 45.4390 -57.9410 70° East 586 674 33,000  Level FlightAware ADS-B
Sun 09:42:36 PM 45.4760 -57.7960 70° East 587 676 33,000  Level FlightAware ADS-B
Sun 09:43:19 PM 45.5180 -57.6290 70° East 585 673 33,000  Level FlightAware ADS-B
Sun 09:43:59 PM 45.5550 -57.4850 70° East 585 673 33,000  Level FlightAware ADS-B
Sun 09:44:53 PM 45.6000 -57.3070 70° East 585 673 33,000  Level FlightAware ADS-B
Sun 09:45:42 PM 45.6380 -57.1550 70° East 585 673 33,000  Level FlightAware ADS-B
Sun 09:46:22 PM 45.6840 -56.9670 71° East 581 669 33,000  Level FlightAware ADS-B
Sun 09:47:14 PM 45.7300 -56.7790 71° East 581 669 33,000  Level FlightAware ADS-B
Sun 09:48:00 PM 45.7700 -56.6140 71° East 580 667 33,000  Level FlightAware ADS-B
Sun 09:48:34 PM 45.7970 -56.5040 71° East 580 667 33,000 146 Level FlightAware ADS-B
Sun 09:49:22 PM 45.8420 -56.3130 71° East 582 670 33,200 587 Climbing FlightAware ADS-B
Sun 09:50:06 PM 45.8750 -56.1590 73° East 588 677 33,900 571 Climbing FlightAware ADS-B
Sun 09:50:46 PM 45.9070 -56.0050 73° East 591 680 34,000 75 Climbing FlightAware ADS-B
Sun 09:51:26 PM 45.9340 -55.8760 73° East 591 680 34,000  Level FlightAware ADS-B
Sun 09:52:11 PM 45.9740 -55.6850 73° East 590 679 34,000  Level FlightAware ADS-B
Sun 09:52:51 PM 46.0050 -55.5350 73° East 589 678 34,000  Level FlightAware ADS-B
Sun 09:53:46 PM 46.0470 -55.3340 73° East 588 677 34,000  Level FlightAware ADS-B
Sun 09:54:26 PM 46.0790 -55.1780 73° East 587 676 34,000  Level FlightAware ADS-B
Sun 09:55:11 PM 46.1100 -55.0250 74° East 587 676 34,000  Level FlightAware ADS-B
Sun 09:56:06 PM 46.1540 -54.8070 74° East 584 672 34,000  Level FlightAware ADS-B
Sun 09:56:46 PM 46.1830 -54.6630 74° East 582 670 34,000  Level FlightAware ADS-B
Sun 09:57:32 PM 46.2180 -54.4860 74° East 579 666 34,000  Level FlightAware ADS-B
Sun 09:58:16 PM 46.2500 -54.3230 74° East 578 665 34,000  Level FlightAware ADS-B
Sun 09:58:54 PM 46.2750 -54.1950 74° East 578 665 34,000  Level FlightAware ADS-B
Sun 09:59:38 PM 46.3100 -54.0140 74° East 577 664 34,000  Level FlightAware ADS-B
Sun 10:00:18 PM 46.3380 -53.8670 75° East 577 664 34,000  Level FlightAware ADS-B
Sun 10:01:04 PM 46.3700 -53.6940 75° East 577 664 34,000  Level FlightAware ADS-B
Sun 10:01:44 PM 46.3980 -53.5470 75° East 577 664 34,000  Level FlightAware ADS-B
Sun 10:02:26 PM 46.4270 -53.3900 75° East 576 663 34,000  Level FlightAware ADS-B
Sun 10:03:11 PM 46.4580 -53.2240 75° East 576 663 34,000  Level FlightAware ADS-B
Sun 10:03:52 PM 46.4860 -53.0700 75° East 577 664 34,000  Level FlightAware ADS-B
Sun 10:04:31 PM 46.5120 -52.9260 75° East 578 665 34,000  Level FlightAware ADS-B
Sun 10:05:16 PM 46.5430 -52.7580 75° East 577 664 34,000  Level FlightAware ADS-B
Sun 10:05:58 PM 46.5710 -52.6000 75° East 577 664 34,000  Level FlightAware ADS-B
Sun 10:06:38 PM 46.5970 -52.4510 76° East 577 664 34,000  Level FlightAware ADS-B
Sun 10:07:22 PM 46.6260 -52.2840 76° East 577 664 34,000  Level FlightAware ADS-B
Sun 10:08:04 PM 46.6540 -52.1270 75° East 577 664 34,000  Level FlightAware ADS-B
Sun 10:08:44 PM 46.6800 -51.9760 76° East 578 665 34,000  Level FlightAware ADS-B
Sun 10:09:24 PM 46.7060 -51.8260 76° East 577 664 34,000  Level FlightAware ADS-B
Sun 10:10:08 PM 46.7340 -51.6600 76° East 578 665 34,000  Level FlightAware ADS-B
Sun 10:11:21 PM 46.7750 -51.4120 76° East 579 666 34,000  Level FlightAware ADS-B
Sun 10:11:57 PM 46.7950 -51.2960 76° East 579 666 34,000  Level FlightAware ADS-B
Sun 10:12:41 PM 46.8290 -51.0820 77° East 578 665 34,000  Level FlightAware ADS-B
Sun 10:13:26 PM 46.8560 -50.9170 76° East 578 665 34,000  Level FlightAware ADS-B
Sun 10:14:04 PM 46.8790 -50.7830 76° East 578 665 34,000  Level FlightAware ADS-B
Sun 10:14:52 PM 46.9050 -50.6280 76° East 578 665 34,000  Level FlightAware ADS-B
Sun 10:15:28 PM 46.9250 -50.5120 76° East 578 665 34,000  Level FlightAware ADS-B
Sun 10:16:05 PM 46.9450 -50.3920 76° East 578 665 34,000  Level FlightAware ADS-B
Sun 10:16:54 PM 46.9720 -50.2340 76° East 578 665 34,000  Level FlightAware ADS-B
Sun 10:17:40 PM 46.9970 -50.0850 76° East 578 665 34,000  Level FlightAware ADS-B
Sun 10:18:16 PM 47.0170 -49.9690 76° East 578 665 34,000  Level FlightAware ADS-B
Sun 10:18:53 PM 47.0370 -49.8490 76° East 578 665 34,000  Level FlightAware ADS-B
Sun 10:19:41 PM 47.0640 -49.6940 76° East 578 665 34,000  Level FlightAware ADS-B
Sun 10:20:18 PM 47.0840 -49.5740 76° East 578 665 34,000  Level FlightAware ADS-B
Sun 10:21:04 PM 47.1090 -49.4250 76° East 578 665 34,000  Level FlightAware ADS-B
Sun 10:21:41 PM 47.1300 -49.3050 76° East 578 665 34,000  Level FlightAware ADS-B
Sun 10:22:29 PM 47.1560 -49.1490 76° East 578 665 34,000  Level FlightAware ADS-B
Sun 10:23:16 PM 47.1820 -48.9970 76° East 578 665 34,000  Level FlightAware ADS-B
Sun 10:23:55 PM 47.0333 -48.4500 76° East 580 667 34,000  Level Gander Center
Sun 10:24:26 PM 47.0333 -48.3333 90° East 580 667 34,000  Level Gander Center
Sun 10:25:26 PM 47.0500 -48.1000 84° East 570 656 34,000  Level Gander Center
Sun 10:26:26 PM 47.0500 -47.8500 90° East 580 667 34,000  Level Gander Center
Sun 10:27:26 PM 47.0500 -47.6333 90° East 570 656 34,000  Level Gander Center
Sun 10:27:55 PM 47.0500 -47.5167 90° East 570 656 34,000  Level Gander Center
Sun 10:28:55 PM 47.0667 -47.2833 84° East 570 656 34,000  Level Gander Center
Sun 10:29:26 PM 47.0667 -47.1667 90° East 570 656 34,000  Level Gander Center
Sun 10:30:26 PM 47.0500 -46.9333 96° East 570 656 34,000  Level Gander Center
Sun 10:31:26 PM 47.0333 -46.7000 96° East 570 656 34,000 Level Gander Center
Sun 10:34:00 PM 47.0989 -46.2576 78° East  Level FlightAware Approximate
Sun 10:41:00 PM 47.1070 -44.7280 89° East  Level FlightAware Approximate
Sun 10:42:00 PM 47.1063 -44.5105 90° East  Level FlightAware Approximate
Sun 10:43:00 PM 47.1053 -44.2930 90° East  Level FlightAware Approximate
Sun 10:44:00 PM 47.1038 -44.0756 90° East  Level FlightAware Approximate
Sun 10:45:00 PM 47.1019 -43.8581 91° East  Level FlightAware Approximate
Sun 10:46:00 PM 47.0997 -43.6407 91° East  Level FlightAware Approximate
Sun 10:47:00 PM 47.0970 -43.4232 91° East  Level FlightAware Approximate
Sun 10:48:00 PM 47.0938 -43.2058 91° East  Level FlightAware Approximate
Sun 10:49:00 PM 47.0903 -42.9885 91° East  Level FlightAware Approximate
Sun 10:50:00 PM 47.0864 -42.7711 91° East  Level FlightAware Approximate
Sun 10:51:00 PM 47.0820 -42.5538 92° East  Level FlightAware Approximate
Sun 10:52:00 PM 47.0773 -42.3365 92° East  Level FlightAware Approximate
Sun 10:53:00 PM 47.0721 -42.1193 92° East  Level FlightAware Approximate
Sun 10:54:00 PM 47.0665 -41.9021 92° East  Level FlightAware Approximate
Sun 10:55:00 PM 47.0605 -41.6850 92° East  Level FlightAware Approximate
Sun 10:56:00 PM 47.0541 -41.4679 92° East  Level FlightAware Approximate
Sun 10:57:00 PM 47.0473 -41.2509 93° East  Level FlightAware Approximate
Sun 10:58:00 PM 47.0401 -41.0339 93° East  Level FlightAware Approximate
Sun 10:59:00 PM 47.0325 -40.8170 93° East  Level FlightAware Approximate
Sun 11:00:00 PM 47.0244 -40.6001 93° East  Level FlightAware Approximate
Sun 11:01:00 PM 47.0160 -40.3833 93° East  Level FlightAware Approximate
Sun 11:02:00 PM 47.0073 -40.1716 93° East  Level FlightAware Approximate
Sun 11:03:00 PM 47.0057 -39.9607 78° East  Level FlightAware Approximate
Sun 11:04:00 PM 47.0358 -39.7532 78° East  Level FlightAware Approximate
Sun 11:05:00 PM 47.0654 -39.5455 78° East  Level FlightAware Approximate
Sun 11:06:00 PM 47.0947 -39.3375 78° East  Level FlightAware Approximate
Sun 11:07:00 PM 47.1236 -39.1293 78° East  Level FlightAware Approximate
Sun 11:08:00 PM 47.1521 -38.9209 79° East  Level FlightAware Approximate
Sun 11:09:00 PM 47.1803 -38.7123 79° East  Level FlightAware Approximate
Sun 11:10:00 PM 47.2080 -38.5034 79° East  Level FlightAware Approximate
Sun 11:11:00 PM 47.2354 -38.2943 79° East  Level FlightAware Approximate
Sun 11:12:00 PM 47.2624 -38.0850 79° East  Level FlightAware Approximate
Sun 11:13:00 PM 47.2891 -37.8755 79° East  Level FlightAware Approximate
Sun 11:14:00 PM 47.3153 -37.6658 79° East  Level FlightAware Approximate
Sun 11:15:00 PM 47.3411 -37.4559 80° East  Level FlightAware Approximate
Sun 11:16:00 PM 47.3666 -37.2457 80° East  Level FlightAware Approximate
Sun 11:17:00 PM 47.3917 -37.0354 80° East  Level FlightAware Approximate
Sun 11:18:00 PM 47.4164 -36.8249 80° East  Level FlightAware Approximate
Sun 11:19:00 PM 47.4408 -36.6142 80° East  Level FlightAware Approximate
Sun 11:20:00 PM 47.4647 -36.4032 80° East  Level FlightAware Approximate
Sun 11:21:00 PM 47.4882 -36.1921 81° East  Level FlightAware Approximate
Sun 11:22:00 PM 47.5114 -35.9808 81° East  Level FlightAware Approximate
Sun 11:23:00 PM 47.5342 -35.7693 81° East  Level FlightAware Approximate
Sun 11:24:00 PM 47.5565 -35.5577 81° East  Level FlightAware Approximate
Sun 11:25:00 PM 47.5785 -35.3458 81° East  Level FlightAware Approximate
Sun 11:26:00 PM 47.6001 -35.1338 81° East  Level FlightAware Approximate
Sun 11:27:00 PM 47.6213 -34.9216 81° East  Level FlightAware Approximate
Sun 11:28:00 PM 47.6422 -34.7093 82° East  Level FlightAware Approximate
Sun 11:29:00 PM 47.6626 -34.4967 82° East  Level FlightAware Approximate
Sun 11:30:00 PM 47.6826 -34.2840 82° East  Level FlightAware Approximate
Sun 11:31:00 PM 47.7023 -34.0712 82° East  Level FlightAware Approximate
Sun 11:32:00 PM 47.7215 -33.8582 82° East  Level FlightAware Approximate
Sun 11:33:00 PM 47.7404 -33.6450 82° East  Level FlightAware Approximate
Sun 11:34:00 PM 47.7588 -33.4317 83° East  Level FlightAware Approximate
Sun 11:35:00 PM 47.7769 -33.2182 83° East  Level FlightAware Approximate
Sun 11:36:00 PM 47.7945 -33.0046 83° East  Level FlightAware Approximate
Sun 11:37:00 PM 47.8118 -32.7908 83° East  Level FlightAware Approximate
Sun 11:38:00 PM 47.8287 -32.5769 83° East  Level FlightAware Approximate
Sun 11:39:00 PM 47.8451 -32.3628 83° East  Level FlightAware Approximate
Sun 11:40:00 PM 47.8612 -32.1487 84° East  Level FlightAware Approximate
Sun 11:41:00 PM 47.8769 -31.9343 84° East  Level FlightAware Approximate
Sun 11:42:00 PM 47.8922 -31.7199 84° East  Level FlightAware Approximate
Sun 11:43:00 PM 47.9071 -31.5054 84° East  Level FlightAware Approximate
Sun 11:44:00 PM 47.9216 -31.2907 84° East  Level FlightAware Approximate
Sun 11:45:00 PM 47.9356 -31.0759 84° East  Level FlightAware Approximate
Sun 11:46:00 PM 47.9493 -30.8610 84° East  Level FlightAware Approximate
Sun 11:47:00 PM 47.9626 -30.6459 85° East  Level FlightAware Approximate
Sun 11:48:00 PM 47.9754 -30.4308 85° East  Level FlightAware Approximate
Sun 11:49:00 PM 47.9879 -30.2155 85° East  Level FlightAware Approximate
Sun 11:50:00 PM 48.0000 -30.0002 85° East  Level FlightAware Approximate
Sun 11:51:00 PM 48.0306 -29.7889 78° East  Level FlightAware Approximate
Sun 11:52:00 PM 48.0609 -29.5774 78° East  Level FlightAware Approximate
Sun 11:53:00 PM 48.0907 -29.3656 78° East  Level FlightAware Approximate
Sun 11:54:00 PM 48.1202 -29.1535 78° East  Level FlightAware Approximate
Sun 11:55:00 PM 48.1493 -28.9413 78° East  Level FlightAware Approximate
Sun 11:56:00 PM 48.1780 -28.7288 78° East  Level FlightAware Approximate
Sun 11:57:00 PM 48.2063 -28.5160 79° East  Level FlightAware Approximate
Sun 11:58:00 PM 48.2342 -28.3030 79° East  Level FlightAware Approximate
Sun 11:59:00 PM 48.2617 -28.0898 79° East  Level FlightAware Approximate
Mon 12:00:00 AM 48.2888 -27.8764 79° East  Level FlightAware Approximate
Mon 12:01:00 AM 48.3155 -27.6628 79° East  Level FlightAware Approximate
Mon 12:02:00 AM 48.3419 -27.4489 79° East  Level FlightAware Approximate
Mon 12:03:00 AM 48.3678 -27.2348 80° East  Level FlightAware Approximate
Mon 12:04:00 AM 48.3933 -27.0205 80° East  Level FlightAware Approximate
Mon 12:05:00 AM 48.4184 -26.8059 80° East  Level FlightAware Approximate
Mon 12:06:00 AM 48.4432 -26.5912 80° East  Level FlightAware Approximate
Mon 12:07:00 AM 48.4675 -26.3762 80° East  Level FlightAware Approximate
Mon 12:08:00 AM 48.4914 -26.1611 80° East  Level FlightAware Approximate
Mon 12:09:00 AM 48.5150 -25.9457 81° East  Level FlightAware Approximate
Mon 12:10:00 AM 48.5381 -25.7302 81° East  Level FlightAware Approximate
Mon 12:11:00 AM 48.5608 -25.5144 81° East  Level FlightAware Approximate
Mon 12:12:00 AM 48.5831 -25.2985 81° East  Level FlightAware Approximate
Mon 12:13:00 AM 48.6051 -25.0823 81° East  Level FlightAware Approximate
Mon 12:14:00 AM 48.6266 -24.8660 81° East  Level FlightAware Approximate
Mon 12:15:00 AM 48.6477 -24.6495 82° East  Level FlightAware Approximate
Mon 12:16:00 AM 48.6684 -24.4328 82° East  Level FlightAware Approximate
Mon 12:17:00 AM 48.6887 -24.2160 82° East  Level FlightAware Approximate
Mon 12:18:00 AM 48.7086 -23.9990 82° East  Level FlightAware Approximate
Mon 12:19:00 AM 48.7281 -23.7818 82° East  Level FlightAware Approximate
Mon 12:20:00 AM 48.7471 -23.5644 82° East  Level FlightAware Approximate
Mon 12:21:00 AM 48.7658 -23.3469 83° East  Level FlightAware Approximate
Mon 12:22:00 AM 48.7840 -23.1292 83° East  Level FlightAware Approximate
Mon 12:23:00 AM 48.8019 -22.9113 83° East  Level FlightAware Approximate
Mon 12:24:00 AM 48.8193 -22.6933 83° East  Level FlightAware Approximate
Mon 12:25:00 AM 48.8363 -22.4752 83° East  Level FlightAware Approximate
Mon 12:26:00 AM 48.8529 -22.2569 83° East  Level FlightAware Approximate
Mon 12:27:00 AM 48.8691 -22.0385 83° East  Level FlightAware Approximate
Mon 12:28:00 AM 48.8849 -21.8199 84° East  Level FlightAware Approximate
Mon 12:29:00 AM 48.9003 -21.6012 84° East  Level FlightAware Approximate
Mon 12:30:00 AM 48.9153 -21.3823 84° East  Level FlightAware Approximate
Mon 12:31:00 AM 48.9298 -21.1633 84° East  Level FlightAware Approximate
Mon 12:32:00 AM 48.9439 -20.9442 84° East  Level FlightAware Approximate
Mon 12:33:00 AM 48.9576 -20.7250 84° East  Level FlightAware Approximate
Mon 12:34:00 AM 48.9710 -20.5057 85° East  Level FlightAware Approximate
Mon 12:35:00 AM 48.9838 -20.2862 85° East  Level FlightAware Approximate
Mon 12:36:00 AM 48.9962 -20.0679 85° East  Level FlightAware Approximate
Mon 12:37:00 AM 49.0201 -19.8520 78° East  Level FlightAware Approximate
Mon 12:38:00 AM 49.0489 -19.6371 78° East  Level FlightAware Approximate
Mon 12:39:00 AM 49.0773 -19.4219 79° East  Level FlightAware Approximate
Mon 12:40:00 AM 49.1053 -19.2065 79° East  Level FlightAware Approximate
Mon 12:41:00 AM 49.1329 -18.9909 79° East  Level FlightAware Approximate
Mon 12:42:00 AM 49.1601 -18.7750 79° East  Level FlightAware Approximate
Mon 12:43:00 AM 49.1869 -18.5589 79° East  Level FlightAware Approximate
Mon 12:44:00 AM 49.2133 -18.3425 79° East  Level FlightAware Approximate
Mon 12:45:00 AM 49.2393 -18.1259 80° East  Level FlightAware Approximate
Mon 12:46:00 AM 49.2648 -17.9091 80° East  Level FlightAware Approximate
Mon 12:47:00 AM 49.2900 -17.6921 80° East  Level FlightAware Approximate
Mon 12:48:00 AM 49.3148 -17.4748 80° East  Level FlightAware Approximate
Mon 12:49:00 AM 49.3391 -17.2573 80° East  Level FlightAware Approximate
Mon 12:50:00 AM 49.3631 -17.0396 80° East  Level FlightAware Approximate
Mon 12:51:00 AM 49.3866 -16.8218 80° East  Level FlightAware Approximate
Mon 12:52:00 AM 49.4098 -16.6036 81° East  Level FlightAware Approximate
Mon 12:53:00 AM 49.4325 -16.3853 81° East  Level FlightAware Approximate
Mon 12:54:00 AM 49.4547 -16.1674 81° East  Level FlightAware Approximate
Mon 12:55:00 AM 49.4766 -15.9493 81° East  Level FlightAware Approximate
Mon 12:56:00 AM 49.4980 -15.7310 81° East  Level FlightAware Approximate
Mon 12:57:00 AM 49.5190 -15.5126 81° East  Level FlightAware Approximate
Mon 12:58:00 AM 49.5396 -15.2939 82° East  Level FlightAware Approximate
Mon 12:59:00 AM 49.5598 -15.0751 82° East  Level FlightAware Approximate
Mon 01:00:00 AM 49.5799 -14.8561 82° East  Level FlightAware Approximate
Mon 01:01:00 AM 49.5998 -14.6370 82° East  Level FlightAware Approximate
Mon 01:02:00 AM 49.6192 -14.4177 82° East  Level FlightAware Approximate
Mon 01:03:00 AM 49.6382 -14.1983 82° East  Level FlightAware Approximate
Mon 01:04:00 AM 49.6568 -13.9786 82° East  Level FlightAware Approximate
Mon 01:05:00 AM 49.6750 -13.7589 83° East  Level FlightAware Approximate
Mon 01:06:00 AM 49.6927 -13.5389 83° East  Level FlightAware Approximate
Mon 01:07:00 AM 49.7101 -13.3188 83° East  Level FlightAware Approximate
Mon 01:08:00 AM 49.7270 -13.0985 83° East  Level FlightAware Approximate
Mon 01:09:00 AM 49.7435 -12.8781 83° East  Level FlightAware Approximate
Mon 01:10:00 AM 49.7596 -12.6575 83° East  Level FlightAware Approximate
Mon 01:11:00 AM 49.7753 -12.4368 84° East  Level FlightAware Approximate
Mon 01:12:00 AM 49.7905 -12.2160 84° East  Level FlightAware Approximate
Mon 01:12:03 AM 49.6780 -9.9290 84° East 529 609 35,000  Level FlightAware ADS-B
Mon 01:12:47 AM 49.6970 -9.7880 78° East 529 609 35,000  Level FlightAware ADS-B
Mon 01:13:30 AM 49.7180 -9.6070 80° East 530 610 35,000  Level FlightAware ADS-B
Mon 01:14:09 AM 49.7360 -9.4620 79° East 529 609 35,000  Level FlightAware ADS-B
Mon 01:14:51 AM 49.7550 -9.3070 79° East 526 605 35,000  Level FlightAware ADS-B
Mon 01:15:33 AM 49.7740 -9.1520 79° East 527 606 35,000  Level FlightAware ADS-B
Mon 01:16:14 AM 49.7909 -8.9981 79° East 476 548 35,000  Level FlightAware UK
Mon 01:16:15 AM 49.7920 -8.9990 79° East 524 603 35,000  Level FlightAware ADS-B
Mon 01:16:44 AM 49.8040 -8.8877 79° East 474 545 35,000  Level FlightAware UK
Mon 01:16:55 AM 49.8090 -8.8540 79° East 522 601 35,000  Level FlightAware ADS-B
Mon 01:17:14 AM 49.8168 -8.7775 79° East 474 545 35,000  Level FlightAware UK
Mon 01:17:41 AM 49.8290 -8.6790 79° East 521 600 35,000 -100 Level FlightAware ADS-B
Mon 01:18:14 AM 49.8421 -8.5577 79° East 474 545 34,900  Descending FlightAware UK
Mon 01:18:19 AM 49.8440 -8.5440 79° East 520 598 35,000 200 Climbing FlightAware ADS-B
Mon 01:18:44 AM 49.8545 -8.4479 79° East 476 548 35,000  Level FlightAware UK
Mon 01:19:03 AM 49.8630 -8.3800 79° East 517 595 35,000 -100 Level FlightAware ADS-B
Mon 01:19:44 AM 49.8790 -8.2293 79° East 476 548 34,900  Descending FlightAware UK
Mon 01:19:46 AM 49.8800 -8.2260 79° East 516 594 35,000 200 Climbing FlightAware ADS-B
Mon 01:20:14 AM 49.8912 -8.1204 79° East 474 545 35,000  Level FlightAware UK
Mon 01:20:29 AM 49.8960 -8.0770 79° East 514 592 35,000  Level FlightAware ADS-B
Mon 01:20:44 AM 49.9031 -8.0110 79° East 474 545 35,000  Level FlightAware UK
Mon 01:21:09 AM 49.9130 -7.9240 79° East 512 589 35,000  Level FlightAware ADS-B
Mon 01:21:44 AM 49.9262 -7.7946 79° East 474 545 35,000  Level FlightAware UK
Mon 01:21:53 AM 49.9300 -7.7660 79° East 509 586 35,000  Level FlightAware ADS-B
Mon 01:22:14 AM 49.9377 -7.6869 79° East 474 545 35,000  Level FlightAware UK
Mon 01:22:33 AM 49.9450 -7.6240 79° East 506 582 35,000  Level FlightAware ADS-B
Mon 01:23:14 AM 49.9602 -7.4725 79° East 474 545 35,000  Level FlightAware UK
Mon 01:23:17 AM 49.9610 -7.4680 79° East 502 578 35,000  Level FlightAware ADS-B
Mon 01:23:44 AM 49.9710 -7.3661 79° East 472 543 35,000  Level FlightAware UK
Mon 01:23:57 AM 49.9760 -7.3230 79° East 500 575 35,000  Level FlightAware ADS-B
Mon 01:24:14 AM 49.9817 -7.2603 79° East 474 545 35,000  Level FlightAware UK
Mon 01:24:37 AM 49.9900 -7.1860 79° East 499 574 35,000  Level FlightAware ADS-B
Mon 01:25:14 AM 50.0034 -7.0492 79° East 472 543 35,000  Level FlightAware UK
Mon 01:25:23 AM 50.0070 -7.0210 79° East 495 570 35,000  Level FlightAware ADS-B
Mon 01:25:45 AM 50.0139 -6.9432 79° East 474 545 35,000  Level FlightAware UK
Mon 01:26:04 AM 50.0210 -6.8790 79° East 493 567 35,000  Level FlightAware ADS-B
Mon 01:26:44 AM 50.0350 -6.7380 79° East 492 566 35,000  Level FlightAware ADS-B
Mon 01:26:45 AM 50.0344 -6.7334 79° East 472 543 35,000  Level FlightAware UK
Mon 01:27:15 AM 50.0449 -6.6291 79° East 474 545 35,000  Level FlightAware UK
Mon 01:27:27 AM 50.0490 -6.5900 79° East 489 563 35,000  Level FlightAware ADS-B
Mon 01:27:45 AM 50.0551 -6.5252 79° East 472 543 35,000  Level FlightAware UK
Mon 01:28:11 AM 50.0640 -6.4360 79° East 485 558 35,000  Level FlightAware ADS-B
Mon 01:28:45 AM 50.0744 -6.3187 79° East 470 541 35,000  Level FlightAware UK
Mon 01:28:49 AM 50.0760 -6.3060 79° East 483 556 35,000  Level FlightAware ADS-B
Mon 01:29:15 AM 50.0843 -6.2159 79° East 470 541 35,000  Level FlightAware UK
Mon 01:29:35 AM 50.0900 -6.1480 79° East 481 554 35,000  Level FlightAware ADS-B
Mon 01:30:14 AM 50.1020 -6.0160 79° East 483 556 35,000  Level FlightAware ADS-B
Mon 01:30:15 AM 50.1032 -6.0106 79° East 466 536 35,000  Level FlightAware UK
Mon 01:30:45 AM 50.1123 -5.9074 79° East 468 539 35,000  Level FlightAware UK
Mon 01:30:56 AM 50.1160 -5.8710 79° East 487 560 35,000  Level FlightAware ADS-B
Mon 01:31:15 AM 50.1212 -5.8028 79° East 470 541 35,000  Level FlightAware UK
Mon 01:31:40 AM 50.1290 -5.7170 79° East 485 558 35,000  Level FlightAware ADS-B
Mon 01:32:15 AM 50.1460 -5.5966 79° East 470 541 35,000  Level FlightAware UK
Mon 01:32:22 AM 50.1500 -5.5750 79° East 486 559 35,000  Level FlightAware ADS-B
Mon 01:32:45 AM 50.1658 -5.4966 79° East 470 541 35,000  Level FlightAware UK
Mon 01:33:02 AM 50.1770 -5.4440 79° East 485 558 35,000  Level FlightAware ADS-B
Mon 01:33:45 AM 50.2076 -5.2972 79° East 468 539 35,000  Level FlightAware UK
Mon 01:33:47 AM 50.2090 -5.2940 79° East 482 555 35,000 -200 Level FlightAware ADS-B
Mon 01:34:15 AM 50.2285 -5.1983 79° East 468 539 34,900 -300 Descending FlightAware UK
Mon 01:34:27 AM 50.2360 -5.1630 79° East 473 544 34,800 -600 Descending FlightAware ADS-B
Mon 01:34:45 AM 50.2485 -5.1020 79° East 462 532 34,600 -1,000 Descending FlightAware UK
Mon 01:35:15 AM 50.2683 -5.0056 72° East 462 532 34,000 -968 Descending FlightAware UK
Mon 01:35:16 AM 50.2640 -5.0260 72° East 469 540 34,100 -1,200 Climbing FlightAware ADS-B
Mon 01:35:45 AM 50.2882 -4.9090 72° East 464 534 33,400 -1,347 Descending FlightAware UK
Mon 01:36:05 AM 50.3010 -4.8450 72° East 469 540 33,000 -500 Descending FlightAware ADS-B
Mon 01:36:45 AM 50.3279 -4.7147 72° East 466 536 32,900  Descending FlightAware UK
Mon 01:36:47 AM 50.3280 -4.7130 72° East 470 541 33,000  Climbing FlightAware ADS-B
Mon 01:37:15 AM 50.3476 -4.6178 72° East 464 534 32,900  Descending FlightAware UK
Mon 01:37:31 AM 50.3580 -4.5670 72° East 467 537 33,000 107 Climbing FlightAware ADS-B
Mon 01:38:11 AM 50.3840 -4.4380 72° East 468 539 33,000 -171 Level FlightAware ADS-B
Mon 01:38:41 AM 50.4031 -4.3421 73° East 463 533 32,800 -750 Descending FlightAware ADS-B
Mon 01:39:15 AM 50.4246 -4.2328 73° East 452 520 32,200 -906 Descending FlightAware UK
Mon 01:39:34 AM 50.4360 -4.1760 73° East 455 524 32,000 -737 Descending FlightAware ADS-B
Mon 01:40:12 AM 50.4600 -4.0560 73° East 452 520 31,500 -878 Descending FlightAware ADS-B
Mon 01:40:15 AM 50.4618 -4.0449 73° East 448 516 31,400 -923 Descending FlightAware UK
Mon 01:40:28 AM 50.4699 -4.0043 73° East 31,200 -833 Descending FlightAware ADS-B
Mon 01:40:51 AM 50.4836 -3.9325 73° East 444 511 30,900 -706 Descending FlightAware UK
Mon 01:41:02 AM 50.4900 -3.9010 73° East 447 514 30,800 -1,000 Descending FlightAware ADS-B
Mon 01:41:21 AM 50.5019 -3.8389 73° East 442 509 30,400 -878 Descending FlightAware UK
Mon 01:41:43 AM 50.5150 -3.7750 73° East 444 511 30,200 -700 Descending FlightAware ADS-B
Mon 01:42:21 AM 50.5374 -3.6549 73° East 438 504 29,700 -625 Descending FlightAware UK
Mon 01:42:31 AM 50.5430 -3.6270 73° East 439 505 29,700 -800 Level FlightAware ADS-B
Mon 01:42:51 AM 50.5550 -3.5640 73° East 436 502 29,300 -800 Descending FlightAware UK
Mon 01:43:01 AM 50.5604 -3.5362 73° East 434 499 29,300 -400 Level FlightAware ADS-B
Mon 01:43:21 AM 50.5722 -3.4737 73° East 434 499 29,100 -545 Descending FlightAware UK
Mon 01:43:34 AM 50.5792 -3.4380 73° East 429 494 29,000 -600 Descending FlightAware ADS-B
Mon 01:43:51 AM 50.5893 -3.3840 73° East 432 497 28,800 -750 Descending FlightAware UK
Mon 01:44:06 AM 50.5974 -3.3417 73° East 425 489 28,600 -800 Descending FlightAware ADS-B
Mon 01:44:21 AM 50.6061 -3.2958 73° East 428 493 28,400 -800 Descending FlightAware UK
Mon 01:44:36 AM 50.6143 -3.2527 73° East 422 486 28,200 -800 Descending FlightAware ADS-B
Mon 01:44:51 AM 50.6226 -3.2080 73° East 426 490 28,000 -600 Descending FlightAware UK
Mon 01:45:06 AM 50.6309 -3.1644 73° East 420 483 27,900 -600 Descending FlightAware ADS-B
Mon 01:45:21 AM 50.6391 -3.1202 73° East 424 488 27,700 -774 Descending FlightAware UK
Mon 01:45:37 AM 50.6477 -3.0739 73° East 418 481 27,500 -714 Descending FlightAware ADS-B
Mon 01:46:03 AM 50.6619 -2.9972 73° East 422 486 27,200 -556 Descending FlightAware UK
Mon 01:46:31 AM 50.6765 -2.9189 73° East 414 476 27,000 -261 Descending FlightAware ADS-B
Mon 01:46:49 AM 50.6846 -2.8660 76° East 410 472 27,000  Level FlightAware ADS-B
Mon 01:47:05 AM 50.6864 -2.8182 87° East 409 471 27,000  Level FlightAware ADS-B
Mon 01:47:36 AM 50.6843 -2.7260 92° East 409 471 27,000  Level FlightAware ADS-B
Mon 01:48:09 AM 50.6780 -2.6292 96° East 410 472 27,000  Level FlightAware ADS-B
Mon 01:48:42 AM 50.6702 -2.5315 97° East 410 472 27,000 -833 Level FlightAware ADS-B
Mon 01:49:21 AM 50.6615 -2.4180 97° East 404 465 26,000 -1,594 Descending FlightAware ADS-B
Mon 01:49:46 AM 50.6559 -2.3438 97° East 410 472 25,300 -1,636 Descending FlightAware UK
Mon 01:49:54 AM 50.6546 -2.3224 97° East 397 457 25,100 -1,667 Descending FlightAware ADS-B
Mon 01:50:22 AM 50.6489 -2.2426 97° East 400 460 24,300 -1,667 Descending FlightAware UK
Mon 01:50:30 AM 50.6474 -2.2216 97° East 389 448 24,100 -2,000 Descending FlightAware ADS-B
Mon 01:50:52 AM 50.6431 -2.1582 97° East 396 456 23,300 -2,200 Descending FlightAware UK
Mon 01:51:00 AM 50.6419 -2.1357 97° East 388 447 23,000 -1,800 Descending FlightAware ADS-B
Mon 01:51:22 AM 50.6380 -2.0743 97° East 394 453 22,400 -1,579 Descending FlightAware UK
Mon 01:51:38 AM 50.6353 -2.0322 97° East 386 444 22,000 -1,811 Descending FlightAware ADS-B
Mon 01:52:15 AM 50.6282 -1.9294 96° East 378 435 20,800 -1,765 Descending FlightAware ADS-B
Mon 01:52:46 AM 50.6222 -1.8456 96° East 372 428 20,000 -1,672 Descending FlightAware ADS-B
Mon 01:53:16 AM 50.6164 -1.7656 96° East 368 423 19,100 -1,875 Descending FlightAware ADS-B
Mon 01:53:34 AM 50.6128 -1.7166 96° East 370 426 18,500 -1,875 Descending FlightAware UK
Mon 01:53:48 AM 50.6104 -1.6800 96° East 368 423 18,100 -2,200 Descending FlightAware ADS-B
Mon 01:54:04 AM 50.6071 -1.6365 96° East 368 423 17,400 -1,935 Descending FlightAware UK
Mon 01:54:19 AM 50.6043 -1.5979 96° East 370 426 17,100 -783 Descending FlightAware ADS-B
Mon 01:54:50 AM 50.5981 -1.5158 97° East 363 418 16,800 -1,082 Descending FlightAware ADS-B
Mon 01:55:20 AM 50.5921 -1.4380 97° East 361 415 16,000 -1,600 Descending FlightAware ADS-B
Mon 01:55:35 AM 50.5897 -1.3987 95° East 359 413 15,600 -1,742 Descending FlightAware ADS-B
Mon 01:55:51 AM 50.5946 -1.3580 79° East 357 411 15,100 -1,920 Descending FlightAware ADS-B
Mon 01:56:00 AM 50.6011 -1.3367 64° Northeast 358 412 14,800 -1,714 Descending FlightAware ADS-B
Mon 01:56:12 AM 50.6131 -1.3130 51° Northeast 358 412 14,500 -1,667 Descending FlightAware ADS-B
Mon 01:56:18 AM 50.6202 -1.3035 40° Northeast 357 411 14,300 -1,636 Descending FlightAware ADS-B
Mon 01:56:23 AM 50.6276 -1.2959 33° Northeast 357 411 14,200 -1,333 Descending FlightAware ADS-B
Mon 01:56:27 AM 50.6327 -1.2913 30° Northeast 355 409 14,100 -1,588 Descending FlightAware ADS-B
Mon 01:56:57 AM 50.6762 -1.2553 28° Northeast 349 402 13,300 -1,082 Descending FlightAware ADS-B
Mon 01:57:28 AM 50.7199 -1.2205 27° Northeast 344 396 13,000 -290 Descending FlightAware ADS-B
Mon 01:57:59 AM 50.7643 -1.1845 27° Northeast 345 397 13,000  Level FlightAware ADS-B
Mon 01:58:29 AM 50.8070 -1.1493 28° Northeast 346 398 13,000  Level FlightAware ADS-B
Mon 01:58:47 AM 50.8321 -1.1285 28° Northeast 342 394 13,000  Level FlightAware UK
Mon 01:59:00 AM 50.8504 -1.1133 28° Northeast 344 396 13,000  Level FlightAware ADS-B
Mon 01:59:32 AM 50.8950 -1.0761 28° Northeast 341 392 13,000  Level FlightAware ADS-B
Mon 02:00:02 AM 50.9370 -1.0412 28° Northeast 340 391 13,000  Level FlightAware ADS-B
Mon 02:00:34 AM 50.9798 -1.0056 28° Northeast 321 369 13,000  Level FlightAware ADS-B
Mon 02:00:41 AM 50.9885 -0.9981 29° Northeast 313 360 13,000  Level FlightAware ADS-B
Mon 02:00:47 AM 50.9967 -0.9898 33° Northeast 306 352 13,000  Level FlightAware ADS-B
Mon 02:01:02 AM 51.0135 -0.9709 35° Northeast 293 337 13,000  Level FlightAware ADS-B
Mon 02:01:32 AM 51.0472 -0.9393 31° Northeast 277 319 13,000  Level FlightAware ADS-B
Mon 02:02:03 AM 51.0811 -0.9093 29° Northeast 274 315 13,000  Level FlightAware ADS-B
Mon 02:02:33 AM 51.1145 -0.8799 29° Northeast 274 315 13,000  Level FlightAware ADS-B
Mon 02:02:57 AM 51.1404 -0.8569 29° Northeast 273 314 13,000  Level FlightAware ADS-B
Mon 02:03:02 AM 51.1468 -0.8504 32° Northeast 273 314 13,000  Level FlightAware ADS-B
Mon 02:03:10 AM 51.1540 -0.8399 42° Northeast 272 313 13,000  Level FlightAware ADS-B
Mon 02:03:15 AM 51.1575 -0.8333 50° Northeast 273 314 13,000  Level FlightAware ADS-B
Mon 02:03:35 AM 51.1722 -0.7990 50° Northeast 278 320 13,000  Level FlightAware UK
Mon 02:03:45 AM 51.1793 -0.7817 50° Northeast 274 315 13,000 -400 Level FlightAware ADS-B
Mon 02:04:05 AM 51.1929 -0.7480 50° Northeast 276 318 12,800 -581 Descending FlightAware UK
Mon 02:04:16 AM 51.1999 -0.7297 50° Northeast 269 310 12,700 -1,000 Descending FlightAware ADS-B
Mon 02:04:35 AM 51.2122 -0.6972 50° Northeast 272 313 12,300 -1,161 Descending FlightAware UK
Mon 02:04:47 AM 51.2192 -0.6783 50° Northeast 268 308 12,100 -1,167 Descending FlightAware ADS-B
Mon 02:05:11 AM 51.2348 -0.6363 50° Northeast 270 311 11,600 -1,161 Descending FlightAware UK
Mon 02:05:18 AM 51.2386 -0.6256 50° Northeast 267 307 11,500 -1,135 Descending FlightAware ADS-B
Mon 02:05:48 AM 51.2573 -0.5740 60° Northeast 266 306 10,900 -1,300 Descending FlightAware ADS-B
Mon 02:06:18 AM 51.2758 -0.5225 60° Northeast 268 308 10,200 -900 Descending FlightAware ADS-B
Mon 02:06:48 AM 51.2946 -0.4707 60° Northeast 271 312 10,000 -391 Descending FlightAware ADS-B
Mon 02:07:04 AM 51.3044 -0.4438 60° Northeast 268 308 9,900 -643 Descending FlightAware ADS-B
Mon 02:07:16 AM 51.3119 -0.4230 60° Northeast 267 307 9,700 -1,043 Descending FlightAware ADS-B
Mon 02:07:27 AM 51.3189 -0.4041 59° Northeast 265 305 9,500 -1,125 Descending FlightAware ADS-B
Mon 02:07:32 AM 51.3220 -0.3969 55° Northeast 264 304 9,400 -1,500 Descending FlightAware ADS-B
Mon 02:07:35 AM 51.3247 -0.3919 49° Northeast 263 303 9,300 -1,500 Descending FlightAware ADS-B
Mon 02:07:40 AM 51.3290 -0.3857 42° Northeast 262 302 9,200 -750 Descending FlightAware ADS-B
Mon 02:07:43 AM 51.3322 -0.3821 34° Northeast 260 299 9,200 -857 Level FlightAware ADS-B
Mon 02:07:47 AM 51.3358 -0.3790 29° Northeast 259 298 9,100 -750 Descending FlightAware ADS-B
Mon 02:07:51 AM 51.3403 -0.3761 21° North 258 297 9,100 -857 Level FlightAware ADS-B
Mon 02:07:54 AM 51.3441 -0.3746 14° North 256 295 9,000 -1,714 Descending FlightAware ADS-B
Mon 02:07:58 AM 51.3488 -0.3736 North 256 295 8,900 -857 Descending FlightAware ADS-B
Mon 02:08:01 AM 51.3525 -0.3735 North 255 293 8,900 -667 Level FlightAware ADS-B
Mon 02:08:07 AM 51.3586 -0.3747 353° North 255 293 8,800 -1,636 Descending FlightAware ADS-B
Mon 02:08:12 AM 51.3642 -0.3775 343° North 253 291 8,600 -1,333 Descending FlightAware ADS-B
Mon 02:08:16 AM 51.3688 -0.3813 333° Northwest 253 291 8,600 -857 Level FlightAware ADS-B
Mon 02:08:19 AM 51.3719 -0.3847 326° Northwest 253 291 8,500 -1,714 Descending FlightAware ADS-B
Mon 02:08:23 AM 51.3750 -0.3889 320° Northwest 252 290 8,400 -1,714 Descending FlightAware ADS-B
Mon 02:08:26 AM 51.3779 -0.3941 312° West 252 290 8,300 -1,000 Descending FlightAware ADS-B
Mon 02:08:29 AM 51.3799 -0.3986 305° West 253 291 8,300 -1,000 Level FlightAware ADS-B
Mon 02:08:32 AM 51.3817 -0.4036 300° West 252 290 8,200 -1,714 Descending FlightAware ADS-B
Mon 02:08:36 AM 51.3831 -0.4091 292° West 252 290 8,100 -857 Descending FlightAware ADS-B
Mon 02:08:39 AM 51.3842 -0.4148 287° West 252 290 8,100  Level FlightAware ADS-B
Mon 02:08:43 AM 51.3850 -0.4229 279° West 253 291 8,100 -750 Level FlightAware ADS-B
Mon 02:08:47 AM 51.3852 -0.4295 273° West 254 292 8,000 -667 Descending FlightAware ADS-B
Mon 02:08:52 AM 51.3852 -0.4389 270° West 254 292 8,000  Level FlightAware ADS-B
Mon 02:09:05 AM 51.3843 -0.4644 267° West 255 293 8,000  Level FlightAware ADS-B
Mon 02:09:21 AM 51.3833 -0.4933 267° West 254 292 8,000  Level FlightAware ADS-B
Mon 02:09:36 AM 51.3824 -0.5217 267° West 255 293 8,000  Level FlightAware ADS-B
Mon 02:09:52 AM 51.3814 -0.5511 267° West 256 295 8,000 -194 Level FlightAware ADS-B
Mon 02:10:07 AM 51.3805 -0.5803 267° West 257 296 7,900 -600 Descending FlightAware ADS-B
Mon 02:10:22 AM 51.3796 -0.6090 267° West 257 296 7,700 -581 Descending FlightAware ADS-B
Mon 02:10:38 AM 51.3787 -0.6390 267° West 256 295 7,600 -581 Descending FlightAware ADS-B
Mon 02:10:53 AM 51.3779 -0.6675 267° West 255 293 7,400 -774 Descending FlightAware ADS-B
Mon 02:11:09 AM 51.3770 -0.6975 267° West 255 293 7,200 -774 Descending FlightAware ADS-B
Mon 02:11:24 AM 51.3761 -0.7261 267° West 255 293 7,000 -800 Descending FlightAware ADS-B
Mon 02:11:39 AM 51.3752 -0.7549 267° West 256 295 6,800 -643 Descending FlightAware ADS-B
Mon 02:11:52 AM 51.3747 -0.7795 268° West 257 296 6,700 -632 Descending FlightAware ADS-B
Mon 02:11:58 AM 51.3753 -0.7893 276° West 256 295 6,600 -667 Descending FlightAware ADS-B
Mon 02:12:01 AM 51.3762 -0.7963 282° West 255 293 6,600 -500 Level FlightAware ADS-B
Mon 02:12:10 AM 51.3792 -0.8112 288° West 254 292 6,500 -750 Descending FlightAware ADS-B
Mon 02:12:25 AM 51.3856 -0.8376 291° West 252 290 6,300 -692 Descending FlightAware ADS-B
Mon 02:12:36 AM 51.3903 -0.8566 292° West 252 290 6,200 -857 Descending FlightAware ADS-B
Mon 02:12:39 AM 51.3920 -0.8627 294° West 251 289 6,100 -750 Descending FlightAware ADS-B
Mon 02:12:44 AM 51.3948 -0.8703 301° West 249 287 6,100 -667 Level FlightAware ADS-B
Mon 02:12:48 AM 51.3972 -0.8752 308° West 247 284 6,000 -857 Descending FlightAware ADS-B
Mon 02:12:51 AM 51.4000 -0.8797 315° West 245 282 6,000 -750 Level FlightAware ADS-B
Mon 02:12:56 AM 51.4041 -0.8845 323° Northwest 242 278 5,900 -750 Descending FlightAware ADS-B
Mon 02:12:59 AM 51.4076 -0.8877 331° Northwest 240 276 5,900 -857 Level FlightAware ADS-B
Mon 02:13:03 AM 51.4110 -0.8899 338° Northwest 238 274 5,800 -667 Descending FlightAware ADS-B
Mon 02:13:08 AM 51.4173 -0.8920 348° North 233 268 5,800 -750 Level FlightAware ADS-B
Mon 02:13:11 AM 51.4203 -0.8923 357° North 231 266 5,700 -1,000 Descending FlightAware ADS-B
Mon 02:13:20 AM 51.4289 -0.8901 North 226 260 5,600 -462 Descending FlightAware ADS-B
Mon 02:13:24 AM 51.4333 -0.8870 24° Northeast 224 258 5,600 -600 Level FlightAware ADS-B
Mon 02:13:30 AM 51.4379 -0.8818 35° Northeast 218 251 5,500 -545 Descending FlightAware ADS-B
Mon 02:13:35 AM 51.4414 -0.8762 45° Northeast 215 247 5,500 -545 Level FlightAware ADS-B
Mon 02:13:41 AM 51.4449 -0.8686 53° Northeast 211 243 5,400 -818 Descending FlightAware ADS-B
Mon 02:13:57 AM 51.4532 -0.8473 58° Northeast 203 234 5,200 -938 Descending FlightAware ADS-B
Mon 02:14:13 AM 51.4607 -0.8279 58° Northeast 199 229 4,900 -1,161 Descending FlightAware ADS-B
Mon 02:14:28 AM 51.4681 -0.8091 58° Northeast 198 228 4,600 -1,200 Descending FlightAware ADS-B
Mon 02:14:33 AM 51.4705 -0.8027 59° Northeast 198 228 4,500 -667 Descending FlightAware ADS-B
Mon 02:14:37 AM 51.4719 -0.7980 65° Northeast 198 228 4,500 -857 Level FlightAware ADS-B
Mon 02:14:40 AM 51.4731 -0.7931 69° East 198 228 4,400 -1,333 Descending FlightAware ADS-B
Mon 02:14:46 AM 51.4746 -0.7846 74° East 198 228 4,300 -1,286 Descending FlightAware ADS-B
Mon 02:14:54 AM 51.4758 -0.7730 81° East 199 229 4,100 -1,500 Descending FlightAware ADS-B
Mon 02:14:58 AM 51.4760 -0.7680 86° East 200 230 4,000 -1,800 Descending FlightAware ADS-B
Mon 02:15:04 AM 51.4762 -0.7582 88° East 200 230 3,800 -1,500 Descending FlightAware ADS-B
Mon 02:15:18 AM 51.4762 -0.7375 90° East 201 231 3,500 -1,154 Descending FlightAware ADS-B
Mon 02:15:30 AM 51.4763 -0.7200 89° East 197 227 3,300 -857 Descending FlightAware ADS-B
Mon 02:15:46 AM 51.4764 -0.6987 90° East 186 214 3,100 -774 Descending FlightAware ADS-B
Mon 02:16:01 AM 51.4766 -0.6788 89° East 175 201 2,900 -1,000 Descending FlightAware ADS-B
Mon 02:16:16 AM 51.4767 -0.6598 90° East 164 189 2,600 -1,400 Descending FlightAware ADS-B
Mon 02:16:31 AM 51.4768 -0.6415 89° East 160 184 2,200 -1,548 Descending FlightAware ADS-B
Mon 02:16:47 AM 51.4769 -0.6238 89° East 157 181 1,800 -1,313 Descending FlightAware ADS-B
Mon 02:17:03 AM 51.4770 -0.6042 90° East 159 183 1,500 -857 Descending FlightAware ADS-B
Mon 02:17:22 AM 51.4771 -0.5835 90° East 149 171 1,300 -824 Descending FlightAware ADS-B
Mon 02:17:54 AM 51.4772 -0.5487 90° East 152 175 800 -837 Descending FlightAware UK
Mon 02:18:05 AM 51.4770 -0.5380 90° East 144 166 700 -766 Descending FlightAware ADS-B (CYTZ)
Mon 02:18:41 AM 51.4775 -0.4981 90° East 148 170 200 -833 Descending FlightAware UK

Login

Don't have an account? Register now (free) for customized features, flight alerts, and more!